Camellia — VRCP9 — position and weather

sailwx.info

Track history (hours):
 
Tides and Currents Weather Stations Pressure Air Temp Water Temp Dewpoint Dewpoint Depression Visibility Wind Speed Wind Dir Waves Ship Positions

Camellia

Last reported at 2017-Apr-27 09:00 UTC. Time now 2017-Apr-27 09:12 UTC.
Position N 49°35' W 000°13'.

Length 222 m; draft 8.8 m.

Type: Ship (hazmat cat C). MMSI: 477791900.

Date/timePositionNaut miles runAvg speedWind from/ knotsBaromVisibWave heightAir tempDewpointWater temp
2017-Apr-27 09:00N 49°35' W 000°13'1 1.1
2017-Apr-27 08:31N 49°35' W 000°13'3 5.6
2017-Apr-27 08:01N 49°37' W 000°09'5 9.9
2017-Apr-27 07:31N 49°42' W 000°09'612.3
2017-Apr-27 07:00N 49°48' W 000°08'612.8
2017-Apr-27 06:30N 49°55' W 000°07'612.8
2017-Apr-27 06:01N 50°01' W 000°07'612.7
2017-Apr-27 05:30N 50°07' W 000°06'713.4
2017-Apr-27 05:00N 50°14' W 000°05'815.9
2017-Apr-27 04:30N 50°22' W 000°04'817.0
2017-Apr-27 04:00N 50°29' E 000°02'1020.0
2017-Apr-27 03:30N 50°33' E 000°17'1019.8
2017-Apr-27 03:00N 50°37' E 000°31'1019.3
2017-Apr-27 02:30N 50°42' E 000°44'918.6
2017-Apr-27 02:00N 50°48' E 000°55'917.6
2017-Apr-27 01:30N 50°53' E 001°06'816.7
2017-Apr-27 01:00N 50°58' E 001°17'815.4
2017-Apr-27 00:30N 51°03' E 001°26'815.6
2017-Apr-27 00:00N 51°08' E 001°36'816.0
2017-Apr-26 23:30N 51°14' E 001°45'1615.8
2017-Apr-26 22:31N 51°24' E 002°04'917.6
2017-Apr-26 22:00N 51°21' E 002°17'1019.2
2017-Apr-26 21:30N 51°23' E 002°32'816.0
2017-Apr-26 21:01N 51°24' E 002°45'816.0
2017-Apr-26 20:30N 51°25' E 002°58'918.9
2017-Apr-26 20:01N 51°24' E 003°13'1019.3
2017-Apr-26 19:30N 51°25' E 003°28'813.1
2017-Apr-26 18:55N 51°26' E 003°40'613.5
2017-Apr-26 18:30N 51°22' E 003°46'712.9
2017-Apr-26 18:00N 51°23' E 003°56'4 7.8
2017-Apr-26 17:30N 51°24' E 004°02'713.4
2017-Apr-26 17:01N 51°23' E 004°13'4 7.5
2017-Apr-26 16:30N 51°21' E 004°17'0 0.0
2017-Apr-26 16:00N 51°21' E 004°17'0 0.0
2017-Apr-26 15:30N 51°21' E 004°17'0 0.9
2017-Apr-26 15:00N 51°21' E 004°18'1 1.6
2017-Apr-26 14:31N 51°20' E 004°18'5 5.0
2017-Apr-26 13:31N 51°16' E 004°22'0 0.5
2017-Apr-26 12:58N 51°16' E 004°23'0 0.0
2017-Apr-26 12:28N 51°16' E 004°23'0 0.0
2017-Apr-26 11:58N 51°16' E 004°23'0 0.0
2017-Apr-26 11:28N 51°16' E 004°23'0 0.0
2017-Apr-26 10:58N 51°16' E 004°23'0 0.0
2017-Apr-26 10:28N 51°16' E 004°23'0 0.0
2017-Apr-26 09:58N 51°16' E 004°23'0 0.0
2017-Apr-26 09:28N 51°16' E 004°23'0 0.0
2017-Apr-26 08:58N 51°16' E 004°23'0 0.0
2017-Apr-26 08:28N 51°16' E 004°23'0 0.0
2017-Apr-26 07:58N 51°16' E 004°23'0 0.0
2017-Apr-26 07:28N 51°16' E 004°23'0 0.0
2017-Apr-26 06:58N 51°16' E 004°23'0 0.0
2017-Apr-26 06:28N 51°16' E 004°23'0 0.0
2017-Apr-26 05:58N 51°16' E 004°23'0 0.0
2017-Apr-26 05:28N 51°16' E 004°23'0 0.0
2017-Apr-26 04:58N 51°16' E 004°23'0 0.0
2017-Apr-26 04:28N 51°16' E 004°23'0 0.0
2017-Apr-26 03:58N 51°16' E 004°23'0 0.0
2017-Apr-26 03:28N 51°16' E 004°23'0 0.0
2017-Apr-26 02:58N 51°16' E 004°23'0 0.0
2017-Apr-26 02:28N 51°16' E 004°23'0 0.0
2017-Apr-26 01:58N 51°16' E 004°23'0 0.0
2017-Apr-26 01:28N 51°16' E 004°23'0 0.0
2017-Apr-26 00:58N 51°16' E 004°23'0 0.4
2017-Apr-26 00:30N 51°16' E 004°22'1 2.0
2017-Apr-26 00:00N 51°16' E 004°21'2 4.9
2017-Apr-25 23:30N 51°18' E 004°20'3 6.0
2017-Apr-25 23:01N 51°21' E 004°17'0 0.2
2017-Apr-25 22:31N 51°21' E 004°17'0 0.0
2017-Apr-25 22:01N 51°21' E 004°17'0 0.2
2017-Apr-25 21:31N 51°21' E 004°17'2 4.9
2017-Apr-25 21:00N 51°22' E 004°13'5 9.8
2017-Apr-25 20:30N 51°22' E 004°06'611.1
2017-Apr-25 20:00N 51°26' E 003°59'510.3
2017-Apr-25 19:30N 51°22' E 003°55'612.7
2017-Apr-25 19:00N 51°22' E 003°45'612.2
2017-Apr-25 18:30N 51°26' E 003°38'5 9.4
2017-Apr-25 18:00N 51°25' E 003°31'714.6
2017-Apr-25 17:30N 51°24' E 003°19'815.8
2017-Apr-25 17:00N 51°24' E 003°06'816.2
2017-Apr-25 16:30N 51°22' E 002°54'713.2
2017-Apr-25 16:00N 51°22' E 002°43'5 9.1
2017-Apr-25 15:30N 51°22' E 002°36'918.1
2017-Apr-25 15:00N 51°20' E 002°22'1020.7
2017-Apr-25 14:30N 51°14' E 002°07'1616.1
2017-Apr-25 13:30N 51°03' E 001°49'612.1
2017-Apr-25 13:01N 51°03' E 001°59'713.7
2017-Apr-25 12:30N 51°03' E 002°10'2 4.2
2017-Apr-25 11:59N 51°01' E 002°11'0 0.0
2017-Apr-25 11:29N 51°01' E 002°11'0 0.0
2017-Apr-25 10:59N 51°01' E 002°11'0 0.0
2017-Apr-25 10:29N 51°01' E 002°11'0 0.0
2017-Apr-25 09:59N 51°01' E 002°11'0 0.0
2017-Apr-25 09:26N 51°01' E 002°11'0 0.0
2017-Apr-25 08:56N 51°01' E 002°11'0 0.0
2017-Apr-25 08:27N 51°01' E 002°11'0 0.0
2017-Apr-25 07:59N 51°01' E 002°11'0 0.0
2017-Apr-25 07:29N 51°01' E 002°11'0 0.0
2017-Apr-25 06:59N 51°01' E 002°11'0 0.0
2017-Apr-25 06:26N 51°01' E 002°11'0 0.0
2017-Apr-25 05:59N 51°01' E 002°11'0 0.0
2017-Apr-25 05:29N 51°01' E 002°11'0 0.1
2017-Apr-25 04:59N 51°01' E 002°11'0 0.1
2017-Apr-25 04:29N 51°01' E 002°11'0 0.0
2017-Apr-25 03:59N 51°01' E 002°11'0 0.0
2017-Apr-25 03:29N 51°01' E 002°11'0 0.0
2017-Apr-25 02:59N 51°01' E 002°11'0 0.0
2017-Apr-25 02:29N 51°01' E 002°11'0 0.0
2017-Apr-25 01:56N 51°01' E 002°11'0 0.0
2017-Apr-25 01:29N 51°01' E 002°11'0 0.0
2017-Apr-25 00:59N 51°01' E 002°11'0 0.0
2017-Apr-25 00:29N 51°01' E 002°11'0 0.0
2017-Apr-24 23:59N 51°01' E 002°11'0 0.0
2017-Apr-24 23:29N 51°01' E 002°11'0 0.0
2017-Apr-24 22:59N 51°01' E 002°11'0 0.0
2017-Apr-24 22:29N 51°01' E 002°11'0 0.0
2017-Apr-24 21:59N 51°01' E 002°11'0 0.0
2017-Apr-24 21:29N 51°01' E 002°11'0 0.0
2017-Apr-24 20:56N 51°01' E 002°11'0 0.0
2017-Apr-24 20:26N 51°01' E 002°11'0 0.0
2017-Apr-24 19:59N 51°01' E 002°11'0 0.0
2017-Apr-24 19:29N 51°01' E 002°11'0 0.0
2017-Apr-24 18:59N 51°01' E 002°11'0 0.0
2017-Apr-24 18:26N 51°01' E 002°11'0 0.0
2017-Apr-24 17:59N 51°01' E 002°11'0 0.0
2017-Apr-24 17:29N 51°01' E 002°11'0 0.0
2017-Apr-24 16:59N 51°01' E 002°11'0 0.0
2017-Apr-24 16:26N 51°01' E 002°11'0 0.0
2017-Apr-24 15:59N 51°01' E 002°11'0 0.0
2017-Apr-24 15:29N 51°01' E 002°11'0 0.0
2017-Apr-24 14:59N 51°01' E 002°11'0 0.0
2017-Apr-24 14:29N 51°01' E 002°11'0 0.0
2017-Apr-24 13:29N 51°01' E 002°11'0 0.0
2017-Apr-24 12:56N 51°01' E 002°11'0 0.0
2017-Apr-24 12:29N 51°01' E 002°11'0 0.0
2017-Apr-24 11:59N 51°01' E 002°11'0 0.0
2017-Apr-24 11:25N 51°01' E 002°11'0 0.0
2017-Apr-24 10:55N 51°01' E 002°11'0 0.0
2017-Apr-24 10:28N 51°01' E 002°11'0 0.0
2017-Apr-24 09:59N 51°01' E 002°11'0 0.0
2017-Apr-24 09:29N 51°01' E 002°11'0 0.0
2017-Apr-24 08:58N 51°01' E 002°11'0 0.0
2017-Apr-24 08:22N 51°01' E 002°11'0 0.0
2017-Apr-24 07:59N 51°01' E 002°11'0 0.0
2017-Apr-24 07:28N 51°01' E 002°11'0 0.0
2017-Apr-24 06:55N 51°01' E 002°11'0 0.0
2017-Apr-24 06:28N 51°01' E 002°11'0 0.0
2017-Apr-24 05:58N 51°01' E 002°11'0 0.0
2017-Apr-24 05:28N 51°01' E 002°11'0 0.0
2017-Apr-24 04:58N 51°01' E 002°11'0 0.0
2017-Apr-24 04:28N 51°01' E 002°11'0 0.0
2017-Apr-24 03:58N 51°01' E 002°11'0 0.0
2017-Apr-24 03:28N 51°01' E 002°11'0 1.0
2017-Apr-24 03:00N 51°01' E 002°11'4 7.6
2017-Apr-24 02:30N 51°03' E 002°05'815.4
2017-Apr-24 02:00N 51°03' E 001°53'5 9.3
2017-Apr-24 01:31N 51°02' E 001°46'3 6.7
2017-Apr-24 01:00N 51°01' E 001°41'611.6
2017-Apr-24 00:31N 50°57' E 001°34'713.2
2017-Apr-24 00:00N 50°51' E 001°29'1015.5
2017-Apr-23 23:24N 50°42' E 001°23'716.4
2017-Apr-23 22:59N 50°38' E 001°15'1413.0
2017-Apr-23 21:53N 50°29' E 000°58'1512.8
2017-Apr-23 20:41N 50°24' E 000°35'512.6
2017-Apr-23 20:15N 50°23' E 000°26'312.8
2017-Apr-23 20:00N 50°22' E 000°21'613.2
2017-Apr-23 19:30N 50°21' E 000°12'713.6
2017-Apr-23 19:00N 50°19' E 000°01'713.8
2017-Apr-23 18:30N 50°17' W 000°09'917.5
2017-Apr-23 18:00N 50°14' W 000°22'1120.7
2017-Apr-23 17:28N 50°11' W 000°39'920.7
2017-Apr-23 17:00N 50°09' W 000°53'1020.5
2017-Apr-23 16:30N 50°06' W 001°08'1020.2
2017-Apr-23 16:00N 50°03' W 001°24'1419.7
2017-Apr-23 15:17N 49°60' W 001°45'3918.2
2017-Apr-23 13:08N 49°50' W 002°44'517.7
2017-Apr-23 12:52N 49°49' W 002°51'1717.5
2017-Apr-23 11:54N 49°44' W 003°16'917.5
2017-Apr-23 11:24N 49°42' W 003°29'1217.4
2017-Apr-23 10:43N 49°39' W 003°47'3717.4
2017-Apr-23 08:36N 49°29' W 004°42'217.4
2017-Apr-23 08:30N 49°29' W 004°44'917.4
2017-Apr-23 08:00N 49°27' W 004°57'917.4
2017-Apr-23 07:30N 49°24' W 005°10'917.7
2017-Apr-23 07:00N 49°21' W 005°23'2216.1
2017-Apr-23 05:39N 49°15' W 005°55'316.0
2017-Apr-23 05:29N 49°14' W 005°58'1218.2
2017-Apr-23 04:50N 49°10' W 006°16'  
2017-Apr-20 19:07N 40°12' W 028°49'519.9
2017-Apr-20 18:53N 40°09' W 028°54'820.2
2017-Apr-20 18:28N 40°04' W 029°02'919.8
2017-Apr-20 18:00N 39°58' W 029°11'1020.4
2017-Apr-20 17:30N 39°52' W 029°22'1020.4
2017-Apr-20 17:00N 39°46' W 029°32'1019.8
2017-Apr-20 16:31N 39°40' W 029°42'1020.0
2017-Apr-20 16:00N 39°33' W 029°53'1020.1
2017-Apr-20 15:30N 39°27' W 030°03'1020.1
2017-Apr-20 15:01N 39°21' W 030°13'1019.9
2017-Apr-20 14:30N 39°15' W 030°23'3920.1
2017-Apr-20 12:33N 38°50' W 031°03'320.2
2017-Apr-20 12:24N 38°48' W 031°06'  
Track history (hours):
 
Tides and Currents Weather Stations Pressure Air Temp Water Temp Dewpoint Dewpoint Depression Visibility Wind Speed Wind Dir Waves Ship Positions

Camellia

Last reported at 2017-Apr-27 09:00 UTC. Time now 2017-Apr-27 09:12 UTC.
Position N 49°35' W 000°13'.

Length 222 m; draft 8.8 m.

Type: Ship (hazmat cat C). MMSI: 477791900.

Date/timePositionNaut miles runAvg speedWind from/ knotsBaromVisibWave heightAir tempDewpointWater temp
2017-Apr-27 09:00N 49°35' W 000°13'1 1.1
2017-Apr-27 08:31N 49°35' W 000°13'3 5.6
2017-Apr-27 08:01N 49°37' W 000°09'5 9.9
2017-Apr-27 07:31N 49°42' W 000°09'612.3
2017-Apr-27 07:00N 49°48' W 000°08'612.8
2017-Apr-27 06:30N 49°55' W 000°07'612.8
2017-Apr-27 06:01N 50°01' W 000°07'612.7
2017-Apr-27 05:30N 50°07' W 000°06'713.4
2017-Apr-27 05:00N 50°14' W 000°05'815.9
2017-Apr-27 04:30N 50°22' W 000°04'817.0
2017-Apr-27 04:00N 50°29' E 000°02'1020.0
2017-Apr-27 03:30N 50°33' E 000°17'1019.8
2017-Apr-27 03:00N 50°37' E 000°31'1019.3
2017-Apr-27 02:30N 50°42' E 000°44'918.6
2017-Apr-27 02:00N 50°48' E 000°55'917.6
2017-Apr-27 01:30N 50°53' E 001°06'816.7
2017-Apr-27 01:00N 50°58' E 001°17'815.4
2017-Apr-27 00:30N 51°03' E 001°26'815.6
2017-Apr-27 00:00N 51°08' E 001°36'816.0
2017-Apr-26 23:30N 51°14' E 001°45'1615.8
2017-Apr-26 22:31N 51°24' E 002°04'917.6
2017-Apr-26 22:00N 51°21' E 002°17'1019.2
2017-Apr-26 21:30N 51°23' E 002°32'816.0
2017-Apr-26 21:01N 51°24' E 002°45'816.0
2017-Apr-26 20:30N 51°25' E 002°58'918.9
2017-Apr-26 20:01N 51°24' E 003°13'1019.3
2017-Apr-26 19:30N 51°25' E 003°28'813.1
2017-Apr-26 18:55N 51°26' E 003°40'613.5
2017-Apr-26 18:30N 51°22' E 003°46'712.9
2017-Apr-26 18:00N 51°23' E 003°56'4 7.8
2017-Apr-26 17:30N 51°24' E 004°02'713.4
2017-Apr-26 17:01N 51°23' E 004°13'4 7.5
2017-Apr-26 16:30N 51°21' E 004°17'0 0.0
2017-Apr-26 16:00N 51°21' E 004°17'0 0.0
2017-Apr-26 15:30N 51°21' E 004°17'0 0.9
2017-Apr-26 15:00N 51°21' E 004°18'1 1.6
2017-Apr-26 14:31N 51°20' E 004°18'5 5.0
2017-Apr-26 13:31N 51°16' E 004°22'0 0.5
2017-Apr-26 12:58N 51°16' E 004°23'0 0.0
2017-Apr-26 12:28N 51°16' E 004°23'0 0.0
2017-Apr-26 11:58N 51°16' E 004°23'0 0.0
2017-Apr-26 11:28N 51°16' E 004°23'0 0.0
2017-Apr-26 10:58N 51°16' E 004°23'0 0.0
2017-Apr-26 10:28N 51°16' E 004°23'0 0.0
2017-Apr-26 09:58N 51°16' E 004°23'0 0.0
2017-Apr-26 09:28N 51°16' E 004°23'0 0.0
2017-Apr-26 08:58N 51°16' E 004°23'0 0.0
2017-Apr-26 08:28N 51°16' E 004°23'0 0.0
2017-Apr-26 07:58N 51°16' E 004°23'0 0.0
2017-Apr-26 07:28N 51°16' E 004°23'0 0.0
2017-Apr-26 06:58N 51°16' E 004°23'0 0.0
2017-Apr-26 06:28N 51°16' E 004°23'0 0.0
2017-Apr-26 05:58N 51°16' E 004°23'0 0.0
2017-Apr-26 05:28N 51°16' E 004°23'0 0.0
2017-Apr-26 04:58N 51°16' E 004°23'0 0.0
2017-Apr-26 04:28N 51°16' E 004°23'0 0.0
2017-Apr-26 03:58N 51°16' E 004°23'0 0.0
2017-Apr-26 03:28N 51°16' E 004°23'0 0.0
2017-Apr-26 02:58N 51°16' E 004°23'0 0.0
2017-Apr-26 02:28N 51°16' E 004°23'0 0.0
2017-Apr-26 01:58N 51°16' E 004°23'0 0.0
2017-Apr-26 01:28N 51°16' E 004°23'0 0.0
2017-Apr-26 00:58N 51°16' E 004°23'0 0.4
2017-Apr-26 00:30N 51°16' E 004°22'1 2.0
2017-Apr-26 00:00N 51°16' E 004°21'2 4.9
2017-Apr-25 23:30N 51°18' E 004°20'3 6.0
2017-Apr-25 23:01N 51°21' E 004°17'0 0.2
2017-Apr-25 22:31N 51°21' E 004°17'0 0.0
2017-Apr-25 22:01N 51°21' E 004°17'0 0.2
2017-Apr-25 21:31N 51°21' E 004°17'2 4.9
2017-Apr-25 21:00N 51°22' E 004°13'5 9.8
2017-Apr-25 20:30N 51°22' E 004°06'611.1
2017-Apr-25 20:00N 51°26' E 003°59'510.3
2017-Apr-25 19:30N 51°22' E 003°55'612.7
2017-Apr-25 19:00N 51°22' E 003°45'612.2
2017-Apr-25 18:30N 51°26' E 003°38'5 9.4
2017-Apr-25 18:00N 51°25' E 003°31'714.6
2017-Apr-25 17:30N 51°24' E 003°19'815.8
2017-Apr-25 17:00N 51°24' E 003°06'816.2
2017-Apr-25 16:30N 51°22' E 002°54'713.2
2017-Apr-25 16:00N 51°22' E 002°43'5 9.1
2017-Apr-25 15:30N 51°22' E 002°36'918.1
2017-Apr-25 15:00N 51°20' E 002°22'1020.7
2017-Apr-25 14:30N 51°14' E 002°07'1616.1
2017-Apr-25 13:30N 51°03' E 001°49'612.1
2017-Apr-25 13:01N 51°03' E 001°59'713.7
2017-Apr-25 12:30N 51°03' E 002°10'2 4.2
2017-Apr-25 11:59N 51°01' E 002°11'0 0.0
2017-Apr-25 11:29N 51°01' E 002°11'0 0.0
2017-Apr-25 10:59N 51°01' E 002°11'0 0.0
2017-Apr-25 10:29N 51°01' E 002°11'0 0.0
2017-Apr-25 09:59N 51°01' E 002°11'0 0.0
2017-Apr-25 09:26N 51°01' E 002°11'0 0.0
2017-Apr-25 08:56N 51°01' E 002°11'0 0.0
2017-Apr-25 08:27N 51°01' E 002°11'0 0.0
2017-Apr-25 07:59N 51°01' E 002°11'0 0.0
2017-Apr-25 07:29N 51°01' E 002°11'0 0.0
2017-Apr-25 06:59N 51°01' E 002°11'0 0.0
2017-Apr-25 06:26N 51°01' E 002°11'0 0.0
2017-Apr-25 05:59N 51°01' E 002°11'0 0.0
2017-Apr-25 05:29N 51°01' E 002°11'0 0.1
2017-Apr-25 04:59N 51°01' E 002°11'0 0.1
2017-Apr-25 04:29N 51°01' E 002°11'0 0.0
2017-Apr-25 03:59N 51°01' E 002°11'0 0.0
2017-Apr-25 03:29N 51°01' E 002°11'0 0.0
2017-Apr-25 02:59N 51°01' E 002°11'0 0.0
2017-Apr-25 02:29N 51°01' E 002°11'0 0.0
2017-Apr-25 01:56N 51°01' E 002°11'0 0.0
2017-Apr-25 01:29N 51°01' E 002°11'0 0.0
2017-Apr-25 00:59N 51°01' E 002°11'0 0.0
2017-Apr-25 00:29N 51°01' E 002°11'0 0.0
2017-Apr-24 23:59N 51°01' E 002°11'0 0.0
2017-Apr-24 23:29N 51°01' E 002°11'0 0.0
2017-Apr-24 22:59N 51°01' E 002°11'0 0.0
2017-Apr-24 22:29N 51°01' E 002°11'0 0.0
2017-Apr-24 21:59N 51°01' E 002°11'0 0.0
2017-Apr-24 21:29N 51°01' E 002°11'0 0.0
2017-Apr-24 20:56N 51°01' E 002°11'0 0.0
2017-Apr-24 20:26N 51°01' E 002°11'0 0.0
2017-Apr-24 19:59N 51°01' E 002°11'0 0.0
2017-Apr-24 19:29N 51°01' E 002°11'0 0.0
2017-Apr-24 18:59N 51°01' E 002°11'0 0.0
2017-Apr-24 18:26N 51°01' E 002°11'0 0.0
2017-Apr-24 17:59N 51°01' E 002°11'0 0.0
2017-Apr-24 17:29N 51°01' E 002°11'0 0.0
2017-Apr-24 16:59N 51°01' E 002°11'0 0.0
2017-Apr-24 16:26N 51°01' E 002°11'0 0.0
2017-Apr-24 15:59N 51°01' E 002°11'0 0.0
2017-Apr-24 15:29N 51°01' E 002°11'0 0.0
2017-Apr-24 14:59N 51°01' E 002°11'0 0.0
2017-Apr-24 14:29N 51°01' E 002°11'0 0.0
2017-Apr-24 13:29N 51°01' E 002°11'0 0.0
2017-Apr-24 12:56N 51°01' E 002°11'0 0.0
2017-Apr-24 12:29N 51°01' E 002°11'0 0.0
2017-Apr-24 11:59N 51°01' E 002°11'0 0.0
2017-Apr-24 11:25N 51°01' E 002°11'0 0.0
2017-Apr-24 10:55N 51°01' E 002°11'0 0.0
2017-Apr-24 10:28N 51°01' E 002°11'0 0.0
2017-Apr-24 09:59N 51°01' E 002°11'0 0.0
2017-Apr-24 09:29N 51°01' E 002°11'0 0.0
2017-Apr-24 08:58N 51°01' E 002°11'0 0.0
2017-Apr-24 08:22N 51°01' E 002°11'0 0.0
2017-Apr-24 07:59N 51°01' E 002°11'0 0.0
2017-Apr-24 07:28N 51°01' E 002°11'0 0.0
2017-Apr-24 06:55N 51°01' E 002°11'0 0.0
2017-Apr-24 06:28N 51°01' E 002°11'0 0.0
2017-Apr-24 05:58N 51°01' E 002°11'0 0.0
2017-Apr-24 05:28N 51°01' E 002°11'0 0.0
2017-Apr-24 04:58N 51°01' E 002°11'0 0.0
2017-Apr-24 04:28N 51°01' E 002°11'0 0.0
2017-Apr-24 03:58N 51°01' E 002°11'0 0.0
2017-Apr-24 03:28N 51°01' E 002°11'0 1.0
2017-Apr-24 03:00N 51°01' E 002°11'4 7.6
2017-Apr-24 02:30N 51°03' E 002°05'815.4
2017-Apr-24 02:00N 51°03' E 001°53'5 9.3
2017-Apr-24 01:31N 51°02' E 001°46'3 6.7
2017-Apr-24 01:00N 51°01' E 001°41'611.6
2017-Apr-24 00:31N 50°57' E 001°34'713.2
2017-Apr-24 00:00N 50°51' E 001°29'1015.5
2017-Apr-23 23:24N 50°42' E 001°23'716.4
2017-Apr-23 22:59N 50°38' E 001°15'1413.0
2017-Apr-23 21:53N 50°29' E 000°58'1512.8
2017-Apr-23 20:41N 50°24' E 000°35'512.6
2017-Apr-23 20:15N 50°23' E 000°26'312.8
2017-Apr-23 20:00N 50°22' E 000°21'613.2
2017-Apr-23 19:30N 50°21' E 000°12'713.6
2017-Apr-23 19:00N 50°19' E 000°01'713.8
2017-Apr-23 18:30N 50°17' W 000°09'917.5
2017-Apr-23 18:00N 50°14' W 000°22'1120.7
2017-Apr-23 17:28N 50°11' W 000°39'920.7
2017-Apr-23 17:00N 50°09' W 000°53'1020.5
2017-Apr-23 16:30N 50°06' W 001°08'1020.2
2017-Apr-23 16:00N 50°03' W 001°24'1419.7
2017-Apr-23 15:17N 49°60' W 001°45'3918.2
2017-Apr-23 13:08N 49°50' W 002°44'517.7
2017-Apr-23 12:52N 49°49' W 002°51'1717.5
2017-Apr-23 11:54N 49°44' W 003°16'917.5
2017-Apr-23 11:24N 49°42' W 003°29'1217.4
2017-Apr-23 10:43N 49°39' W 003°47'3717.4
2017-Apr-23 08:36N 49°29' W 004°42'217.4
2017-Apr-23 08:30N 49°29' W 004°44'917.4
2017-Apr-23 08:00N 49°27' W 004°57'917.4
2017-Apr-23 07:30N 49°24' W 005°10'917.7
2017-Apr-23 07:00N 49°21' W 005°23'2216.1
2017-Apr-23 05:39N 49°15' W 005°55'316.0
2017-Apr-23 05:29N 49°14' W 005°58'1218.2
2017-Apr-23 04:50N 49°10' W 006°16'  
2017-Apr-20 19:07N 40°12' W 028°49'519.9
2017-Apr-20 18:53N 40°09' W 028°54'820.2
2017-Apr-20 18:28N 40°04' W 029°02'919.8
2017-Apr-20 18:00N 39°58' W 029°11'1020.4
2017-Apr-20 17:30N 39°52' W 029°22'1020.4
2017-Apr-20 17:00N 39°46' W 029°32'1019.8
2017-Apr-20 16:31N 39°40' W 029°42'1020.0
2017-Apr-20 16:00N 39°33' W 029°53'1020.1
2017-Apr-20 15:30N 39°27' W 030°03'1020.1
2017-Apr-20 15:01N 39°21' W 030°13'1019.9
2017-Apr-20 14:30N 39°15' W 030°23'3920.1
2017-Apr-20 12:33N 38°50' W 031°03'320.2
2017-Apr-20 12:24N 38°48' W 031°06'  

Dump ship's entire track history